This is the latest recevied weather packets stored in our database for station/object N5SRF. If no packets are shown the sender has not sent any weather packets the latest 10 day(s).
| Time | Temp. | Humidity | Pressure | Rain* | Wind** | Luminosity | Snow |
|---|---|---|---|---|---|---|---|
| 1777502869 | 26.67° C | 93% | 1013.2 hPa | 0 mm | - | 20 W/m² | - |
| 1777502567 | 27.22° C | 93% | 1013 hPa | 1.27 mm | - | 43 W/m² | - |
| 1777502263 | 26.67° C | 92% | 1013 hPa | 1.27 mm | - | 89 W/m² | - |
| 1777501960 | 27.22° C | 91% | 1013 hPa | 0 mm | - | 45 W/m² | - |
| 1777501657 | 27.22° C | 90% | 1013.8 hPa | 0 mm | - | 11 W/m² | - |
| 1777501354 | 27.22° C | 90% | 1013.6 hPa | 0 mm | - | 31 W/m² | - |
| 1777501052 | 27.22° C | 89% | 1013.9 hPa | 0 mm | - | 66 W/m² | - |
| 1777500750 | 27.78° C | 88% | 1013.8 hPa | 0 mm | - | 37 W/m² | - |
| 1777500446 | 27.78° C | 88% | 1013.8 hPa | 0 mm | - | 30 W/m² | - |
| 1777500142 | 27.78° C | 87% | 1013.3 hPa | 0 mm | - | 108 W/m² | - |
| 1777499840 | 27.78° C | 87% | 1013.8 hPa | 0 mm | - | 56 W/m² | - |
| 1777499535 | 27.78° C | 86% | 1013.8 hPa | 0 mm | - | 91 W/m² | - |
| 1777499234 | 27.78° C | 85% | 1014 hPa | 0 mm | - | 80 W/m² | - |
| 1777498931 | 27.78° C | 85% | 1013.9 hPa | 0 mm | - | 56 W/m² | - |
| 1777498627 | 27.78° C | 85% | 1013.9 hPa | 0 mm | - | 45 W/m² | - |
| 1777498323 | 27.78° C | 84% | 1014.1 hPa | 0 mm | - | 29 W/m² | - |
| 1777498021 | 28.33° C | 83% | 1014.3 hPa | 0 mm | - | 27 W/m² | - |
| 1777497717 | 28.89° C | 82% | 1014.2 hPa | 0 mm | - | 20 W/m² | - |
| 1777497414 | 28.89° C | 80% | 1014.2 hPa | 0 mm | - | 37 W/m² | - |
| 1777497110 | 28.89° C | 80% | 1013.8 hPa | 0 mm | - | 165 W/m² | - |
| 1777496807 | 28.89° C | 80% | 1013.8 hPa | 0 mm | - | 137 W/m² | - |
| 1777496504 | 29.44° C | 80% | 1013.7 hPa | 0 mm | - | 108 W/m² | - |
| 1777496200 | 28.89° C | 80% | 1013.9 hPa | 0 mm | - | 100 W/m² | - |
| 1777495896 | 29.44° C | 78% | 1013.8 hPa | 0 mm | - | 121 W/m² | - |
| 1777495592 | 29.44° C | 77% | 1013.7 hPa | 0 mm | - | 110 W/m² | - |
* Rain latest hour (hover to see other rain measurements)
** Current wind speed in m/s (hover to see current wind gust speed)